ダルエスサラーム の空港の天気 - METARとTAF

ジュリウス・ニエレレ国際空港(ダルエスサラーム) ( HTDA / DAR ) - タンザニア ダルエスサラーム
飛行場実況気象(Metar)
観測時間02/18 00:00 EAT (02/17 21:00 UTC)
風向・風速北北東 3m/s
視程10km以上
天気現象
全天の8割程度の雲 雲底高度 370m
気温27℃
湿度84%
気圧1012hPa
METARHTDA 172100Z 03005KT 9999 BKN012 27/24 Q1012 NOSIG
過去の天気等 Google飛行場航空写真 Wunderground天気予報

過去48時間のMETAR

飛行場予報(TAF)
発表時間: 2/17 20:00 EAT (2/17 17:00 UTC)
予報対象時間: 17日21時 EAT ~ 19日3時 EAT
風向・風速北北東 5m/s
視程10km以上
少しの雲 雲底高度 490m
18日4時 EAT ~ 18日7時 EAT に徐々に
風向・風速静穏
全天の8割程度の雲 雲底高度 430m
18日8時 EAT ~ 18日11時 EAT に徐々に
風向・風速北北東 5m/s
TAF HTDA 171700Z 1718/1824 03010KT 9999 FEW016
BECMG 1801/1804 00000KT BKN014
BECMG 1805/1808 02010KT